Norris Rancho Marino Reserve, California Weather observations

Data are for 10 minute period ending at time listed.
 Day   Time   Solar   Ave.   Ave.  Ave.  Vector  Max.   Baro.   Total    
  of    of     Rad.   Air    Rel.  Wind   Wind   Wind  Press.  Precip.   
Year   Day            Temp.  Hum.  Speed  Dir.   Gust                    
2015   (PST)  Kw/m2    F      %     mph   deg.    mph    mb.     in.     
-------------------------------------------------------------------------
 117    3:30   0.00   50.5    86    2.8    48     4.5   1011.7    0.00 
 117    3:40   0.00   50.7    83    2.4   354     4.0   1011.8    0.00 
 117    3:50   0.00   51.1    82    2.2   322     3.5   1011.7    0.00 
 117    4:00   0.00   51.2    81    1.9   333     3.2   1011.7    0.00 
 117    4:10   0.00   51.1    80    1.6    35     3.1   1011.7    0.00 
 117    4:20   0.00   51.2    79    2.0    41     3.4   1011.7    0.00 
 117    4:30   0.00   50.6    81    3.1    18     4.9   1011.7    0.00 
 117    4:40   0.00   50.8    81    1.4   348     2.7   1011.7    0.00 
 117    4:50   0.00   51.4    79    1.2    90     2.9   1011.8    0.00 
 117    5:00   0.00   51.1    79    0.9    21     2.5   1011.8    0.00 
 117    5:10   0.00   50.6    80    1.7   344     3.2   1011.7    0.00 
 117    5:20   0.00   50.7    81    0.4    66     2.2   1011.8    0.00 
 117    5:30   0.01   50.6    82    1.7   326     4.7   1011.9    0.00 
 117    5:40   0.01   50.6    82    0.8   299     2.3   1012.0    0.00 
 117    5:50   0.02   50.3    83    1.8   355     3.6   1012.1    0.00 
 117    6:00   0.03   50.6    83    1.8    46     3.7   1012.1    0.00 
 117    6:10   0.03   52.4    82    2.1    28     4.3   1012.0    0.00 
 117    6:20   0.03   52.3    81    1.6    44     3.5   1012.1    0.00 
 117    6:30   0.14   52.8    82    1.0   290     2.7   1012.0    0.00 
 117    6:40   0.18   55.2    80    0.9   296     2.7   1012.3    0.00 
 117    6:50   0.21   54.7    81    2.0   232     4.7   1012.9    0.00 
 117    7:00   0.25   54.3    84    2.4   280     4.7   1013.2    0.00 
 117    7:10   0.28   53.8    86    3.4   297     4.9   1013.3    0.00 
 117    7:20   0.32   54.3    86    2.7   293     3.7   1013.2    0.00 
 117    7:30   0.35   54.9    85    2.8   296     4.5   1013.3    0.00 
 117    7:40   0.39   56.0    81    2.1   278     4.7   1013.3    0.00 
 117    7:50   0.42   55.7    82    3.1   274     5.3   1013.4    0.00 
 117    8:00   0.46   55.3    85    4.0   286     5.6   1013.4    0.00 
 117    8:10   0.49   55.2    87    4.3   282     6.1   1013.5    0.00 
 117    8:20   0.52   55.5    88    4.3   286     6.4   1013.5    0.00 
 117    8:30   0.55   55.7    86    4.5   271     6.1   1013.4    0.00 
 117    8:40   0.58   56.0    86    4.1   266     5.7   1013.4    0.00 
 117    8:50   0.61   56.2    85    4.4   282     6.1   1013.5    0.00 
 117    9:00   0.65   56.5    83    5.2   279     6.9   1013.5    0.00 
 117    9:10   0.67   56.6    84    5.4   280     6.9   1013.5    0.00 
 117    9:20   0.70   56.6    83    6.3   284     7.7   1013.4    0.00 
 117    9:30   0.73   57.1    83    6.5   281     8.3   1013.3    0.00 
 117    9:40   0.76   56.6    83    7.2   281     8.8   1013.3    0.00 
 117    9:50   0.78   57.4    83    6.0   284     8.2   1013.2    0.00 
 117   10:00   0.80   58.2    80    5.6   280     7.1   1013.3    0.00 
 117   10:10   0.82   58.9    78    5.5   281     7.3   1013.1    0.00 
 117   10:20   0.84   58.1    79    5.9   280     8.0   1013.1    0.00 
 117   10:30   0.86   58.6    80    5.1   278     6.6   1013.1    0.00 
 117   10:40   0.88   58.7    78    5.4   278     7.2   1013.1    0.00 
 117   10:50   0.89   59.1    79    5.2   287     7.0   1013.0    0.00 
 117   11:00   0.91   61.9    70    6.5   287     9.3   1012.9    0.00 
 117   11:10   0.91   62.5    68    6.7   286     9.1   1012.9    0.00 
 117   11:20   0.93   61.3    72    6.4   285     8.2   1012.9    0.00 
 117   11:30   0.93   59.0    78    7.7   286     9.4   1012.9    0.00 
 117   11:40   0.94   60.7    76    7.2   292     9.6   1012.9    0.00 
 117   11:50   0.94   61.8    72    9.1   298    13.7   1012.8    0.00 
 117   12:00   0.95   63.4    67   11.0   299    14.5   1012.7    0.00 
 117   12:10   0.95   66.1    59   11.5   312    16.4   1012.5    0.00 
 117   12:20   0.95   67.0    53   13.5   313    18.1   1012.3    0.00 
 117   12:30   0.95   67.7    51   13.1   307    17.2   1012.2    0.00 
 117   12:40   0.94   68.3    49   13.4   301    17.2   1012.0    0.00 
 117   12:50   0.94   69.2    48   12.8   298    16.7   1011.8    0.00 
 117   13:00   0.93   65.4    59   12.6   282    15.6   1011.7    0.00 
 117   13:10   0.92   62.1    69   11.6   290    14.8   1011.7    0.00 
 117   13:20   0.91   64.5    63   10.9   292    14.6   1011.6    0.00 
 117   13:30   0.90   64.3    63    9.5   282    13.2   1011.6    0.00 
 117   13:40   0.89   63.2    64    9.7   288    13.4   1011.6    0.00 
 117   13:50   0.87   61.3    69   10.4   299    14.8   1011.5    0.00 
 117   14:00   0.82   64.2    63   10.5   297    13.7   1011.2    0.00 
 117   14:10   0.83   65.9    59    9.2   295    13.1   1011.0    0.00 
 117   14:20   0.82   63.6    64    9.8   284    13.0   1010.9    0.00 
 117   14:30   0.80   62.0    68    8.0   288    11.5   1010.9    0.00 
 117   14:40   0.77   62.9    66    9.2   288    11.8   1010.9    0.00 
 117   14:50   0.75   60.5    71    7.6   290    11.1   1011.1    0.00 
 117   15:00   0.72   59.5    75    6.7   291    10.4   1011.2    0.00 
 117   15:10   0.70   59.9    75    9.7   290    14.5   1011.2    0.00 
 117   15:20   0.67   59.4    76    8.8   286    12.7   1011.1    0.00 
 117   15:30   0.64   60.0    76   10.2   285    14.9   1011.0    0.00 
 117   15:40   0.61   59.5    77    9.6   290    14.5   1011.0    0.00 
 117   15:50   0.58   59.9    76   10.1   287    14.0   1010.9    0.00 
 117   16:00   0.55   59.5    77    9.6   281    13.2   1010.8    0.00 
 117   16:10   0.52   58.9    78    8.6   281    10.9   1010.8    0.00 
 117   16:20   0.48   59.1    78    8.3   286    10.8   1010.8    0.00 
 117   16:30   0.45   60.0    74    9.4   291    12.9   1010.8    0.00 
 117   16:40   0.41   60.2    72    8.9   281    12.3   1010.8    0.00 
 117   16:50   0.38   58.7    77    8.8   283    10.9   1010.8    0.00 
 117   17:00   0.34   58.4    78    5.5   271     8.6   1011.0    0.00 
 117   17:10   0.30   57.8    80    4.8   269     6.9   1011.0    0.00 
 117   17:20   0.27   57.5    80    4.6   276     6.1   1011.0    0.00 
 117   17:30   0.23   57.0    82    3.3   253     5.4   1011.1    0.00 
 117   17:40   0.20   57.0    83    2.7   263     4.1   1011.1    0.00 
 117   17:50   0.17   56.7    83    3.1   259     5.3   1011.1    0.00 
 117   18:00   0.14   56.8    84    1.7   215     3.2   1011.3    0.00 
 117   18:10   0.10   56.7    84    2.1   202     2.8   1011.6    0.00 
 117   18:20   0.07   56.5    84    1.4   203     2.6   1011.8    0.00 
 117   18:30   0.03   55.7    85    2.3   244     4.5   1011.9    0.00 
 117   18:40   0.01   55.0    87    4.5   274     9.9   1012.0    0.00 
 117   18:50   0.01   53.1    90    9.3   283    11.4   1012.0    0.00 
 117   19:00   0.00   52.1    92    8.5   290    10.6   1012.0    0.00 
 117   19:10   0.00   51.9    94    6.6   295     8.4   1012.1    0.00 
 117   19:20   0.00   51.7    94    7.0   283     9.9   1012.2    0.00 
 117   19:30   0.00   51.6    95    7.5   285    10.5   1012.4    0.00 
 117   19:40   0.00   51.5    95    6.5   288     9.3   1012.3    0.00 
 117   19:50   0.00   51.5    96    5.4   294     9.7   1012.3    0.00 
 117   20:00   0.00   51.3    96    6.6   284     9.7   1012.6    0.00 
 117   20:10   0.00   51.2    96    5.3   276     8.8   1012.7    0.00 
 117   20:20   0.00   51.2    96    3.1   236     5.1   1012.8    0.00 
 117   20:30   0.00   51.3    96    2.3   231     5.2   1012.9    0.00 
 117   20:40   0.00   51.2    96    1.3    32     2.4   1012.9    0.00 
 117   20:50   0.00   51.2    97    0.5   128     2.1   1012.9    0.00 
 117   21:00   0.00   51.2    97    1.9   164     3.8   1012.9    0.00 
 117   21:10   0.00   51.2    97    3.7   138     6.1   1013.0    0.00 
 117   21:20   0.00   51.2    97    4.0   106     5.9   1013.0    0.00 
 117   21:30   0.00   51.2    97    4.0    92     5.8   1013.0    0.00 
 117   21:40   0.00   51.3    97    3.8    88     5.1   1013.1    0.00 
 117   21:50   0.00   51.4    97    4.4   110     6.4   1013.2    0.00 
 117   22:00   0.00   51.6    97    4.7   123     6.3   1013.2    0.00 
 117   22:10   0.00   51.6    97    6.0   129     8.3   1013.3    0.00 
 117   22:20   0.00   51.7    97    5.6   138     8.8   1013.4    0.00 
 117   22:30   0.00   51.7    97    4.2   136     6.7   1013.4    0.00 
 117   22:40   0.00   51.8    97    2.9   147     4.7   1013.4    0.00 
 117   22:50   0.00   51.7    97    2.9   163     4.8   1013.4    0.00 
 117   23:00   0.00   51.8    97    1.5   190     2.6   1013.4    0.00 
 117   23:10   0.00   51.8    97    2.0   205     2.9   1013.4    0.00 
 117   23:20   0.00   51.8    97    1.6   232     2.9   1013.4    0.00 
 117   23:30   0.00   51.8    97    1.5   161     3.8   1013.5    0.00 
 117   23:40   0.00   51.9    97    2.7   216     3.8   1013.5    0.00 
 117   23:50   0.00   51.9    97    1.6   228     3.8   1013.6    0.00 
 118    0:00   0.00   51.8    97    2.4   161     3.5   1013.6    0.00 
 118    0:10   0.00   51.8    97    1.7   178     3.2   1013.7    0.00 
 118    0:20   0.00   51.7    97    2.5   206     3.6   1013.7    0.00 
 118    0:30   0.00   51.7    97    2.9   238     4.7   1013.6    0.00 
 118    0:40   0.00   51.7    97    1.6   183     2.5   1013.5    0.00 
 118    0:50   0.00   51.6    97    1.3   236     3.3   1013.5    0.00 
 118    1:00   0.00   51.5    97    1.6   257     2.8   1013.3    0.00 
 118    1:10   0.00   51.5    97    2.2   238     3.1   1013.4    0.00 
 118    1:20   0.00   51.5    97    3.1   242     5.2   1013.3    0.00 
 118    1:30   0.00   51.4    97    3.0   282     4.8   1013.2    0.00 
 118    1:40   0.00   51.2    97    3.4   276     5.6   1013.1    0.00 
 118    1:50   0.00   51.1    98    2.0   286     4.4   1013.0    0.00 
 118    2:00   0.00   51.1    98    3.0   294     4.7   1012.9    0.00 
 118    2:10   0.00   51.0    98    3.2   326     4.2   1012.8    0.00 
 118    2:20   0.00   51.1    98    4.6   301     8.0   1012.8    0.00 
 118    2:30   0.00   51.3    98    5.8   294     9.3   1012.7    0.00 
 118    2:40   0.00   51.0    98    7.7   296    10.6   1012.7    0.00 
 118    2:50   0.00   50.9    98    7.2   314    11.1   1012.6    0.00 
 118    3:00   0.00   50.9    98    9.1   299    12.0   1012.5    0.00 
 118    3:10   0.00   50.7    98    8.3   296    11.2   1012.5    0.00 
 118    3:20   0.00   50.5    98    8.0   291    10.7   1012.5    0.00 

Return to Norris Rancho Marino Reserve graphs page.


Western Regional Climate Center,wrcc@dri.edu